Portada
METAR-TAF:

METAR-TAF

Aeroports :

Nan, Tailàndia

latitud: 18-46N, longitud: 100-46E, altitud: 200 m

Observació

L'informe es va fer fa 5 hores i 10 minuts, a les 12:00 UTC
Vent 1 kt amb direcció variable
Temperatura 23°C
Humitat 94%
Pressió 1013 hPa
Visibilitat 10 km o més
Núvols disperses a una alçada de 2500 ft

METAR: VTCN 101200Z VRB01KT 9999 SCT025 23/22 Q1013 NOSIG

Hora: 00:10 (17:10 UTC)

Pronòstic

L'informe es va fer fa 6 hores i 10 minuts, a les 11:00 UTC
Pronòstic vàlid del 10 a les 12 UTC al 11 a les 12 UTC
Vent 4 kt del Sud
Visibilitat 10 km o més
Núvols disperses a una alçada de 2500 ft
Evolucionant progressivament
l' 10 a les 21 UTC al 10 a les 23 UTC
Visibilitat: 2000 m
boirina
Evolucionant progressivament
l' 11 a les 01 UTC al 11 a les 03 UTC
Visibilitat 10 km o més

TAF: VTCN 101100Z 1012/1112 18004KT 9999 SCT025 BECMG 1021/1023 2000 BR BECMG 1101/1103 9999 NSW

Observacions i pronòstics meteorològics de més de 4000 aeroports (METAR i TAF).

Les estacions disponibles són els punts grocs i vermells al mapa.

Posi el ratolí al punt desitjat per veure el nom de l'estació.

Feu clic per veure les observacions i els pronòstics meteorològics.

Per canviar el mapa: feu clic els botons verds amb una creu de color negre per apropar; al botó verd amb un guió per allunyar la imatge; o en les fletxes verdes per a mapes adjacents.


METAR-TAF: